sensor_id;sensor_type;location;lat;lon;timestamp;P1;durP1;ratioP1;P2;durP2;ratioP2
12332;SDS011;6232;48.094;11.288;2024-01-30T00:00:15;6.67;;;3.40;;
12332;SDS011;6232;48.094;11.288;2024-01-30T00:03:01;6.53;;;3.27;;
12332;SDS011;6232;48.094;11.288;2024-01-30T00:05:46;3.77;;;3.13;;
12332;SDS011;6232;48.094;11.288;2024-01-30T00:08:32;4.07;;;2.87;;
12332;SDS011;6232;48.094;11.288;2024-01-30T00:11:18;3.90;;;2.40;;
12332;SDS011;6232;48.094;11.288;2024-01-30T00:14:04;4.30;;;3.10;;
12332;SDS011;6232;48.094;11.288;2024-01-30T00:16:50;4.17;;;3.27;;
12332;SDS011;6232;48.094;11.288;2024-01-30T00:19:36;8.47;;;4.17;;
12332;SDS011;6232;48.094;11.288;2024-01-30T00:22:21;6.10;;;5.00;;
12332;SDS011;6232;48.094;11.288;2024-01-30T00:25:07;6.63;;;3.57;;
12332;SDS011;6232;48.094;11.288;2024-01-30T00:27:53;5.00;;;3.83;;
12332;SDS011;6232;48.094;11.288;2024-01-30T00:30:38;3.67;;;3.37;;
12332;SDS011;6232;48.094;11.288;2024-01-30T00:33:24;4.57;;;4.17;;
12332;SDS011;6232;48.094;11.288;2024-01-30T00:36:09;3.67;;;3.37;;
12332;SDS011;6232;48.094;11.288;2024-01-30T00:38:55;9.60;;;3.80;;
12332;SDS011;6232;48.094;11.288;2024-01-30T00:41:41;4.40;;;4.10;;
12332;SDS011;6232;48.094;11.288;2024-01-30T00:44:26;3.40;;;3.10;;
12332;SDS011;6232;48.094;11.288;2024-01-30T00:47:12;3.93;;;3.60;;
12332;SDS011;6232;48.094;11.288;2024-01-30T00:49:58;5.70;;;3.37;;
12332;SDS011;6232;48.094;11.288;2024-01-30T00:52:43;3.63;;;3.40;;
12332;SDS011;6232;48.094;11.288;2024-01-30T00:55:30;3.50;;;3.20;;
12332;SDS011;6232;48.094;11.288;2024-01-30T00:58:15;7.20;;;5.03;;
12332;SDS011;6232;48.094;11.288;2024-01-30T01:01:01;12.13;;;3.80;;
12332;SDS011;6232;48.094;11.288;2024-01-30T01:03:47;5.40;;;3.83;;
12332;SDS011;6232;48.094;11.288;2024-01-30T01:06:33;3.20;;;2.80;;
12332;SDS011;6232;48.094;11.288;2024-01-30T01:09:19;6.60;;;3.97;;
12332;SDS011;6232;48.094;11.288;2024-01-30T01:12:04;3.30;;;3.10;;
12332;SDS011;6232;48.094;11.288;2024-01-30T01:14:50;4.80;;;3.30;;
12332;SDS011;6232;48.094;11.288;2024-01-30T01:17:39;8.67;;;3.93;;
12332;SDS011;6232;48.094;11.288;2024-01-30T01:20:24;3.60;;;3.37;;
12332;SDS011;6232;48.094;11.288;2024-01-30T01:23:10;4.60;;;3.93;;
12332;SDS011;6232;48.094;11.288;2024-01-30T01:25:55;4.97;;;3.70;;
12332;SDS011;6232;48.094;11.288;2024-01-30T01:28:41;3.73;;;3.40;;
12332;SDS011;6232;48.094;11.288;2024-01-30T01:31:26;5.53;;;4.17;;
12332;SDS011;6232;48.094;11.288;2024-01-30T01:34:15;7.40;;;3.83;;
12332;SDS011;6232;48.094;11.288;2024-01-30T01:37:01;4.17;;;3.20;;
12332;SDS011;6232;48.094;11.288;2024-01-30T01:39:46;4.40;;;3.97;;
12332;SDS011;6232;48.094;11.288;2024-01-30T01:42:32;5.87;;;3.00;;
12332;SDS011;6232;48.094;11.288;2024-01-30T01:45:17;3.53;;;2.80;;
12332;SDS011;6232;48.094;11.288;2024-01-30T01:48:03;6.07;;;3.00;;
12332;SDS011;6232;48.094;11.288;2024-01-30T01:50:49;3.77;;;3.47;;
12332;SDS011;6232;48.094;11.288;2024-01-30T01:53:34;3.63;;;3.33;;
12332;SDS011;6232;48.094;11.288;2024-01-30T01:56:20;4.37;;;3.00;;
12332;SDS011;6232;48.094;11.288;2024-01-30T01:59:07;3.73;;;3.40;;
12332;SDS011;6232;48.094;11.288;2024-01-30T02:01:54;3.77;;;3.47;;
12332;SDS011;6232;48.094;11.288;2024-01-30T02:04:40;3.53;;;3.23;;
12332;SDS011;6232;48.094;11.288;2024-01-30T02:07:27;2.93;;;2.60;;
12332;SDS011;6232;48.094;11.288;2024-01-30T02:10:13;3.67;;;3.40;;
12332;SDS011;6232;48.094;11.288;2024-01-30T02:12:59;3.93;;;3.63;;
12332;SDS011;6232;48.094;11.288;2024-01-30T02:15:48;6.13;;;3.73;;
12332;SDS011;6232;48.094;11.288;2024-01-30T02:18:34;5.03;;;3.50;;
12332;SDS011;6232;48.094;11.288;2024-01-30T02:21:20;4.70;;;3.57;;
12332;SDS011;6232;48.094;11.288;2024-01-30T02:24:06;4.47;;;4.10;;
12332;SDS011;6232;48.094;11.288;2024-01-30T02:26:52;5.80;;;3.57;;
12332;SDS011;6232;48.094;11.288;2024-01-30T02:29:37;7.90;;;4.47;;
12332;SDS011;6232;48.094;11.288;2024-01-30T02:32:23;5.90;;;5.40;;
12332;SDS011;6232;48.094;11.288;2024-01-30T02:35:08;3.93;;;3.33;;
12332;SDS011;6232;48.094;11.288;2024-01-30T02:37:54;3.63;;;3.33;;
12332;SDS011;6232;48.094;11.288;2024-01-30T02:40:39;2.97;;;2.77;;
12332;SDS011;6232;48.094;11.288;2024-01-30T02:43:25;10.90;;;3.00;;
12332;SDS011;6232;48.094;11.288;2024-01-30T02:46:10;5.57;;;3.93;;
12332;SDS011;6232;48.094;11.288;2024-01-30T02:48:56;3.50;;;2.87;;
12332;SDS011;6232;48.094;11.288;2024-01-30T02:51:41;3.93;;;3.60;;
12332;SDS011;6232;48.094;11.288;2024-01-30T02:54:27;3.37;;;3.10;;
12332;SDS011;6232;48.094;11.288;2024-01-30T02:57:13;3.37;;;3.17;;
12332;SDS011;6232;48.094;11.288;2024-01-30T02:59:58;3.00;;;2.80;;
12332;SDS011;6232;48.094;11.288;2024-01-30T03:02:44;2.27;;;2.17;;
12332;SDS011;6232;48.094;11.288;2024-01-30T03:05:29;3.73;;;3.10;;
12332;SDS011;6232;48.094;11.288;2024-01-30T03:08:15;3.07;;;2.87;;
12332;SDS011;6232;48.094;11.288;2024-01-30T03:11:00;6.83;;;3.27;;
12332;SDS011;6232;48.094;11.288;2024-01-30T03:13:46;4.20;;;3.00;;
12332;SDS011;6232;48.094;11.288;2024-01-30T03:16:32;3.30;;;2.77;;
12332;SDS011;6232;48.094;11.288;2024-01-30T03:19:17;2.73;;;2.53;;
12332;SDS011;6232;48.094;11.288;2024-01-30T03:22:04;2.90;;;2.70;;
12332;SDS011;6232;48.094;11.288;2024-01-30T03:24:49;4.30;;;3.17;;
12332;SDS011;6232;48.094;11.288;2024-01-30T03:27:35;2.60;;;2.50;;
12332;SDS011;6232;48.094;11.288;2024-01-30T03:30:20;3.40;;;3.10;;
12332;SDS011;6232;48.094;11.288;2024-01-30T03:33:06;2.30;;;2.20;;
12332;SDS011;6232;48.094;11.288;2024-01-30T03:35:51;3.10;;;2.90;;
12332;SDS011;6232;48.094;11.288;2024-01-30T03:38:37;3.77;;;3.47;;
12332;SDS011;6232;48.094;11.288;2024-01-30T03:41:22;3.33;;;2.30;;
12332;SDS011;6232;48.094;11.288;2024-01-30T03:44:08;3.43;;;2.80;;
12332;SDS011;6232;48.094;11.288;2024-01-30T03:46:54;2.50;;;2.40;;
12332;SDS011;6232;48.094;11.288;2024-01-30T03:49:39;3.70;;;3.40;;
12332;SDS011;6232;48.094;11.288;2024-01-30T03:52:25;3.13;;;2.80;;
12332;SDS011;6232;48.094;11.288;2024-01-30T03:55:11;4.00;;;3.60;;
12332;SDS011;6232;48.094;11.288;2024-01-30T03:57:56;4.37;;;3.03;;
12332;SDS011;6232;48.094;11.288;2024-01-30T04:00:42;3.57;;;3.23;;
12332;SDS011;6232;48.094;11.288;2024-01-30T04:03:27;3.43;;;3.00;;
12332;SDS011;6232;48.094;11.288;2024-01-30T04:06:13;3.20;;;2.87;;
12332;SDS011;6232;48.094;11.288;2024-01-30T04:08:58;6.37;;;4.80;;
12332;SDS011;6232;48.094;11.288;2024-01-30T04:11:44;6.73;;;5.93;;
12332;SDS011;6232;48.094;11.288;2024-01-30T04:14:29;4.00;;;3.40;;
12332;SDS011;6232;48.094;11.288;2024-01-30T04:17:15;2.60;;;2.50;;
12332;SDS011;6232;48.094;11.288;2024-01-30T04:20:01;3.27;;;2.97;;
12332;SDS011;6232;48.094;11.288;2024-01-30T04:22:46;3.10;;;2.90;;
12332;SDS011;6232;48.094;11.288;2024-01-30T04:25:32;2.93;;;2.73;;
12332;SDS011;6232;48.094;11.288;2024-01-30T04:28:18;5.03;;;4.40;;
12332;SDS011;6232;48.094;11.288;2024-01-30T04:31:03;2.03;;;1.93;;
12332;SDS011;6232;48.094;11.288;2024-01-30T04:33:49;3.53;;;2.40;;
12332;SDS011;6232;48.094;11.288;2024-01-30T04:36:34;5.03;;;3.50;;
12332;SDS011;6232;48.094;11.288;2024-01-30T04:39:20;2.80;;;2.70;;
12332;SDS011;6232;48.094;11.288;2024-01-30T04:42:06;3.87;;;3.30;;
12332;SDS011;6232;48.094;11.288;2024-01-30T04:44:51;3.23;;;3.03;;
12332;SDS011;6232;48.094;11.288;2024-01-30T04:47:37;3.30;;;3.10;;
12332;SDS011;6232;48.094;11.288;2024-01-30T04:50:23;3.40;;;3.20;;
12332;SDS011;6232;48.094;11.288;2024-01-30T04:53:08;2.40;;;2.30;;
12332;SDS011;6232;48.094;11.288;2024-01-30T04:55:54;3.30;;;3.10;;
12332;SDS011;6232;48.094;11.288;2024-01-30T04:58:39;2.70;;;2.50;;
12332;SDS011;6232;48.094;11.288;2024-01-30T05:01:25;3.73;;;3.30;;
12332;SDS011;6232;48.094;11.288;2024-01-30T05:04:10;3.77;;;3.07;;
12332;SDS011;6232;48.094;11.288;2024-01-30T05:06:56;3.00;;;2.70;;
12332;SDS011;6232;48.094;11.288;2024-01-30T05:09:42;2.90;;;2.70;;
12332;SDS011;6232;48.094;11.288;2024-01-30T05:12:27;5.07;;;4.00;;
12332;SDS011;6232;48.094;11.288;2024-01-30T05:15:13;4.83;;;3.20;;
12332;SDS011;6232;48.094;11.288;2024-01-30T05:17:58;3.87;;;3.50;;
12332;SDS011;6232;48.094;11.288;2024-01-30T05:20:44;2.87;;;2.43;;
12332;SDS011;6232;48.094;11.288;2024-01-30T05:23:29;11.23;;;4.70;;
12332;SDS011;6232;48.094;11.288;2024-01-30T05:26:15;4.73;;;3.57;;
12332;SDS011;6232;48.094;11.288;2024-01-30T05:29:01;4.93;;;4.43;;
12332;SDS011;6232;48.094;11.288;2024-01-30T05:31:46;3.43;;;3.17;;
12332;SDS011;6232;48.094;11.288;2024-01-30T05:34:32;5.17;;;3.70;;
12332;SDS011;6232;48.094;11.288;2024-01-30T05:37:17;4.10;;;3.80;;
12332;SDS011;6232;48.094;11.288;2024-01-30T05:40:03;3.93;;;3.63;;
12332;SDS011;6232;48.094;11.288;2024-01-30T05:42:49;3.27;;;2.97;;
12332;SDS011;6232;48.094;11.288;2024-01-30T05:45:35;2.80;;;2.60;;
12332;SDS011;6232;48.094;11.288;2024-01-30T05:48:21;2.57;;;2.43;;
12332;SDS011;6232;48.094;11.288;2024-01-30T05:51:07;3.97;;;3.50;;
12332;SDS011;6232;48.094;11.288;2024-01-30T05:53:53;15.87;;;7.93;;
12332;SDS011;6232;48.094;11.288;2024-01-30T05:56:38;10.00;;;5.30;;
12332;SDS011;6232;48.094;11.288;2024-01-30T05:59:24;10.23;;;6.70;;
12332;SDS011;6232;48.094;11.288;2024-01-30T06:02:10;4.30;;;3.97;;
12332;SDS011;6232;48.094;11.288;2024-01-30T06:04:56;11.23;;;8.23;;
12332;SDS011;6232;48.094;11.288;2024-01-30T06:07:41;16.77;;;9.20;;
12332;SDS011;6232;48.094;11.288;2024-01-30T06:10:27;7.97;;;6.60;;
12332;SDS011;6232;48.094;11.288;2024-01-30T06:13:12;11.07;;;6.50;;
12332;SDS011;6232;48.094;11.288;2024-01-30T06:15:58;8.20;;;5.70;;
12332;SDS011;6232;48.094;11.288;2024-01-30T06:18:43;2.73;;;2.53;;
12332;SDS011;6232;48.094;11.288;2024-01-30T06:21:29;5.27;;;4.73;;
12332;SDS011;6232;48.094;11.288;2024-01-30T06:24:16;2.77;;;2.57;;
12332;SDS011;6232;48.094;11.288;2024-01-30T06:27:01;3.23;;;3.00;;
12332;SDS011;6232;48.094;11.288;2024-01-30T06:29:47;2.70;;;2.50;;
12332;SDS011;6232;48.094;11.288;2024-01-30T06:32:32;3.10;;;2.83;;
12332;SDS011;6232;48.094;11.288;2024-01-30T06:35:19;6.63;;;3.43;;
12332;SDS011;6232;48.094;11.288;2024-01-30T06:38:05;3.43;;;2.90;;
12332;SDS011;6232;48.094;11.288;2024-01-30T06:40:51;3.43;;;3.20;;
12332;SDS011;6232;48.094;11.288;2024-01-30T06:43:36;4.10;;;2.40;;
12332;SDS011;6232;48.094;11.288;2024-01-30T06:46:22;3.43;;;2.80;;
12332;SDS011;6232;48.094;11.288;2024-01-30T06:49:07;5.57;;;3.97;;
12332;SDS011;6232;48.094;11.288;2024-01-30T06:51:53;5.00;;;3.00;;
12332;SDS011;6232;48.094;11.288;2024-01-30T06:54:38;3.20;;;3.00;;
12332;SDS011;6232;48.094;11.288;2024-01-30T06:57:25;2.53;;;2.40;;
12332;SDS011;6232;48.094;11.288;2024-01-30T07:00:13;4.67;;;4.30;;
12332;SDS011;6232;48.094;11.288;2024-01-30T07:02:59;3.53;;;3.40;;
12332;SDS011;6232;48.094;11.288;2024-01-30T07:05:45;3.50;;;3.20;;
12332;SDS011;6232;48.094;11.288;2024-01-30T07:08:30;4.73;;;3.17;;
12332;SDS011;6232;48.094;11.288;2024-01-30T07:11:19;4.00;;;3.73;;
12332;SDS011;6232;48.094;11.288;2024-01-30T07:14:05;3.53;;;2.97;;
12332;SDS011;6232;48.094;11.288;2024-01-30T07:16:51;3.77;;;3.47;;
12332;SDS011;6232;48.094;11.288;2024-01-30T07:19:36;3.00;;;2.70;;
12332;SDS011;6232;48.094;11.288;2024-01-30T07:22:22;4.37;;;3.63;;
12332;SDS011;6232;48.094;11.288;2024-01-30T07:25:07;3.47;;;2.70;;
12332;SDS011;6232;48.094;11.288;2024-01-30T07:27:53;3.73;;;2.50;;
12332;SDS011;6232;48.094;11.288;2024-01-30T07:30:39;3.07;;;2.87;;
12332;SDS011;6232;48.094;11.288;2024-01-30T07:33:24;4.73;;;3.50;;
12332;SDS011;6232;48.094;11.288;2024-01-30T07:36:10;2.73;;;2.53;;
12332;SDS011;6232;48.094;11.288;2024-01-30T07:38:55;7.83;;;3.60;;
12332;SDS011;6232;48.094;11.288;2024-01-30T07:41:41;2.47;;;2.37;;
12332;SDS011;6232;48.094;11.288;2024-01-30T07:44:27;3.57;;;3.23;;
12332;SDS011;6232;48.094;11.288;2024-01-30T07:47:12;2.47;;;2.27;;
12332;SDS011;6232;48.094;11.288;2024-01-30T07:49:58;2.87;;;2.67;;
12332;SDS011;6232;48.094;11.288;2024-01-30T07:52:43;3.20;;;2.90;;
12332;SDS011;6232;48.094;11.288;2024-01-30T07:55:29;5.03;;;2.60;;
12332;SDS011;6232;48.094;11.288;2024-01-30T07:58:16;3.40;;;3.10;;
12332;SDS011;6232;48.094;11.288;2024-01-30T08:01:02;2.70;;;2.50;;
12332;SDS011;6232;48.094;11.288;2024-01-30T08:03:48;2.97;;;2.77;;
12332;SDS011;6232;48.094;11.288;2024-01-30T08:06:33;4.57;;;3.00;;
12332;SDS011;6232;48.094;11.288;2024-01-30T08:09:19;3.50;;;2.67;;
12332;SDS011;6232;48.094;11.288;2024-01-30T08:12:04;3.10;;;2.90;;
12332;SDS011;6232;48.094;11.288;2024-01-30T08:14:50;3.37;;;3.07;;
12332;SDS011;6232;48.094;11.288;2024-01-30T08:17:35;3.23;;;3.00;;
12332;SDS011;6232;48.094;11.288;2024-01-30T08:20:21;5.80;;;3.07;;
12332;SDS011;6232;48.094;11.288;2024-01-30T08:23:06;4.70;;;2.30;;
12332;SDS011;6232;48.094;11.288;2024-01-30T08:25:52;3.40;;;3.13;;
12332;SDS011;6232;48.094;11.288;2024-01-30T08:28:38;2.97;;;2.47;;
12332;SDS011;6232;48.094;11.288;2024-01-30T08:31:23;3.67;;;3.33;;
12332;SDS011;6232;48.094;11.288;2024-01-30T08:34:09;8.80;;;3.50;;
12332;SDS011;6232;48.094;11.288;2024-01-30T08:36:54;5.83;;;3.27;;
12332;SDS011;6232;48.094;11.288;2024-01-30T08:39:40;2.80;;;2.60;;
12332;SDS011;6232;48.094;11.288;2024-01-30T08:42:25;2.90;;;2.67;;
12332;SDS011;6232;48.094;11.288;2024-01-30T08:45:11;3.00;;;2.70;;
12332;SDS011;6232;48.094;11.288;2024-01-30T08:47:56;36.60;;;14.13;;
12332;SDS011;6232;48.094;11.288;2024-01-30T08:50:42;32.90;;;11.63;;
12332;SDS011;6232;48.094;11.288;2024-01-30T08:53:28;18.67;;;6.20;;
12332;SDS011;6232;48.094;11.288;2024-01-30T08:56:13;12.50;;;4.60;;
12332;SDS011;6232;48.094;11.288;2024-01-30T08:58:59;4.00;;;3.67;;
12332;SDS011;6232;48.094;11.288;2024-01-30T09:01:44;3.13;;;2.33;;
12332;SDS011;6232;48.094;11.288;2024-01-30T09:04:32;3.13;;;2.83;;
12332;SDS011;6232;48.094;11.288;2024-01-30T09:07:17;4.30;;;3.40;;
12332;SDS011;6232;48.094;11.288;2024-01-30T09:10:03;8.10;;;3.10;;
12332;SDS011;6232;48.094;11.288;2024-01-30T09:12:49;6.80;;;3.37;;
12332;SDS011;6232;48.094;11.288;2024-01-30T09:15:35;4.13;;;3.70;;
12332;SDS011;6232;48.094;11.288;2024-01-30T09:18:21;3.20;;;2.90;;
12332;SDS011;6232;48.094;11.288;2024-01-30T09:21:07;3.27;;;3.00;;
12332;SDS011;6232;48.094;11.288;2024-01-30T09:24:06;8.67;;;3.60;;
12332;SDS011;6232;48.094;11.288;2024-01-30T09:26:52;3.87;;;3.40;;
12332;SDS011;6232;48.094;11.288;2024-01-30T09:29:38;6.97;;;3.50;;
12332;SDS011;6232;48.094;11.288;2024-01-30T09:32:24;5.93;;;2.97;;
12332;SDS011;6232;48.094;11.288;2024-01-30T09:35:10;3.43;;;2.67;;
12332;SDS011;6232;48.094;11.288;2024-01-30T09:37:55;3.40;;;2.77;;
12332;SDS011;6232;48.094;11.288;2024-01-30T09:40:42;2.63;;;2.53;;
12332;SDS011;6232;48.094;11.288;2024-01-30T09:43:28;2.83;;;2.63;;
12332;SDS011;6232;48.094;11.288;2024-01-30T09:46:16;2.97;;;2.77;;
12332;SDS011;6232;48.094;11.288;2024-01-30T09:49:02;3.07;;;2.80;;
12332;SDS011;6232;48.094;11.288;2024-01-30T09:51:48;3.60;;;2.83;;
12332;SDS011;6232;48.094;11.288;2024-01-30T09:54:34;3.50;;;3.17;;
12332;SDS011;6232;48.094;11.288;2024-01-30T09:57:21;5.77;;;3.77;;
12332;SDS011;6232;48.094;11.288;2024-01-30T10:00:06;3.77;;;3.00;;
12332;SDS011;6232;48.094;11.288;2024-01-30T10:02:55;3.90;;;2.83;;
12332;SDS011;6232;48.094;11.288;2024-01-30T10:05:40;7.90;;;3.27;;
12332;SDS011;6232;48.094;11.288;2024-01-30T10:08:26;3.60;;;3.13;;
12332;SDS011;6232;48.094;11.288;2024-01-30T10:11:12;2.97;;;2.70;;
12332;SDS011;6232;48.094;11.288;2024-01-30T10:13:57;9.47;;;3.00;;
12332;SDS011;6232;48.094;11.288;2024-01-30T10:16:45;4.73;;;3.30;;
12332;SDS011;6232;48.094;11.288;2024-01-30T10:19:31;2.77;;;2.53;;
12332;SDS011;6232;48.094;11.288;2024-01-30T10:22:17;5.10;;;3.20;;
12332;SDS011;6232;48.094;11.288;2024-01-30T10:25:02;3.03;;;2.70;;
12332;SDS011;6232;48.094;11.288;2024-01-30T10:27:55;4.67;;;3.40;;
12332;SDS011;6232;48.094;11.288;2024-01-30T10:30:40;22.53;;;3.40;;
12332;SDS011;6232;48.094;11.288;2024-01-30T10:33:32;5.90;;;3.30;;
12332;SDS011;6232;48.094;11.288;2024-01-30T10:36:21;4.30;;;3.70;;
12332;SDS011;6232;48.094;11.288;2024-01-30T10:39:08;2.80;;;2.60;;
12332;SDS011;6232;48.094;11.288;2024-01-30T10:41:54;7.50;;;3.00;;
12332;SDS011;6232;48.094;11.288;2024-01-30T10:47:57;4.57;;;3.23;;
12332;SDS011;6232;48.094;11.288;2024-01-30T10:50:43;3.00;;;2.50;;
12332;SDS011;6232;48.094;11.288;2024-01-30T10:53:29;5.63;;;2.53;;
12332;SDS011;6232;48.094;11.288;2024-01-30T10:56:16;4.13;;;2.30;;
12332;SDS011;6232;48.094;11.288;2024-01-30T10:59:04;2.40;;;2.00;;
12332;SDS011;6232;48.094;11.288;2024-01-30T11:01:49;6.00;;;2.37;;
12332;SDS011;6232;48.094;11.288;2024-01-30T11:04:40;2.30;;;1.80;;
12332;SDS011;6232;48.094;11.288;2024-01-30T11:07:29;1.80;;;1.70;;
12332;SDS011;6232;48.094;11.288;2024-01-30T11:10:15;2.17;;;2.00;;
12332;SDS011;6232;48.094;11.288;2024-01-30T11:13:09;3.37;;;1.77;;
12332;SDS011;6232;48.094;11.288;2024-01-30T11:15:55;1.87;;;1.60;;
12332;SDS011;6232;48.094;11.288;2024-01-30T11:18:49;6.93;;;2.23;;
12332;SDS011;6232;48.094;11.288;2024-01-30T11:21:39;2.80;;;1.97;;
12332;SDS011;6232;48.094;11.288;2024-01-30T11:24:25;2.87;;;2.13;;
12332;SDS011;6232;48.094;11.288;2024-01-30T11:27:11;1.93;;;1.83;;
12332;SDS011;6232;48.094;11.288;2024-01-30T11:30:02;1.77;;;1.67;;
12332;SDS011;6232;48.094;11.288;2024-01-30T11:35:53;1.80;;;1.70;;
12332;SDS011;6232;48.094;11.288;2024-01-30T11:38:39;1.63;;;1.53;;
12332;SDS011;6232;48.094;11.288;2024-01-30T11:41:24;5.30;;;1.90;;
12332;SDS011;6232;48.094;11.288;2024-01-30T11:44:10;2.80;;;2.27;;
12332;SDS011;6232;48.094;11.288;2024-01-30T11:46:56;2.40;;;2.07;;
12332;SDS011;6232;48.094;11.288;2024-01-30T11:49:42;2.37;;;2.17;;
12332;SDS011;6232;48.094;11.288;2024-01-30T11:52:28;5.03;;;1.73;;
12332;SDS011;6232;48.094;11.288;2024-01-30T11:55:14;3.53;;;1.83;;
12332;SDS011;6232;48.094;11.288;2024-01-30T11:57:59;3.47;;;2.00;;
12332;SDS011;6232;48.094;11.288;2024-01-30T12:00:54;4.63;;;2.00;;
12332;SDS011;6232;48.094;11.288;2024-01-30T12:03:41;2.00;;;1.80;;
12332;SDS011;6232;48.094;11.288;2024-01-30T12:06:26;1.87;;;1.70;;
12332;SDS011;6232;48.094;11.288;2024-01-30T12:09:15;1.80;;;1.67;;
12332;SDS011;6232;48.094;11.288;2024-01-30T12:12:02;2.50;;;1.87;;
12332;SDS011;6232;48.094;11.288;2024-01-30T12:14:48;2.00;;;1.70;;
12332;SDS011;6232;48.094;11.288;2024-01-30T12:17:33;1.70;;;1.60;;
12332;SDS011;6232;48.094;11.288;2024-01-30T12:20:22;4.33;;;1.83;;
12332;SDS011;6232;48.094;11.288;2024-01-30T12:23:08;1.80;;;1.50;;
12332;SDS011;6232;48.094;11.288;2024-01-30T12:25:56;5.27;;;3.63;;
12332;SDS011;6232;48.094;11.288;2024-01-30T12:28:48;2.20;;;1.90;;
12332;SDS011;6232;48.094;11.288;2024-01-30T12:31:35;3.63;;;2.30;;
12332;SDS011;6232;48.094;11.288;2024-01-30T12:34:24;2.07;;;1.70;;
12332;SDS011;6232;48.094;11.288;2024-01-30T12:37:10;1.73;;;1.63;;
12332;SDS011;6232;48.094;11.288;2024-01-30T12:39:56;5.13;;;1.67;;
12332;SDS011;6232;48.094;11.288;2024-01-30T12:42:42;2.23;;;2.00;;
12332;SDS011;6232;48.094;11.288;2024-01-30T12:45:28;1.50;;;1.40;;
12332;SDS011;6232;48.094;11.288;2024-01-30T12:48:13;2.83;;;1.73;;
12332;SDS011;6232;48.094;11.288;2024-01-30T12:50:59;2.77;;;1.73;;
12332;SDS011;6232;48.094;11.288;2024-01-30T12:53:47;3.50;;;2.10;;
12332;SDS011;6232;48.094;11.288;2024-01-30T12:56:33;3.03;;;1.70;;
12332;SDS011;6232;48.094;11.288;2024-01-30T12:59:19;3.77;;;1.70;;
12332;SDS011;6232;48.094;11.288;2024-01-30T13:02:04;3.90;;;1.83;;
12332;SDS011;6232;48.094;11.288;2024-01-30T13:04:50;2.30;;;1.77;;
12332;SDS011;6232;48.094;11.288;2024-01-30T13:07:36;5.03;;;1.50;;
12332;SDS011;6232;48.094;11.288;2024-01-30T13:10:22;2.07;;;1.70;;
12332;SDS011;6232;48.094;11.288;2024-01-30T13:13:07;2.63;;;1.70;;
12332;SDS011;6232;48.094;11.288;2024-01-30T13:15:54;1.70;;;1.43;;
12332;SDS011;6232;48.094;11.288;2024-01-30T13:18:40;2.50;;;1.87;;
12332;SDS011;6232;48.094;11.288;2024-01-30T13:21:26;1.80;;;1.43;;
12332;SDS011;6232;48.094;11.288;2024-01-30T13:24:12;2.40;;;1.67;;
12332;SDS011;6232;48.094;11.288;2024-01-30T13:26:57;1.57;;;1.47;;
12332;SDS011;6232;48.094;11.288;2024-01-30T13:29:43;2.90;;;2.13;;
12332;SDS011;6232;48.094;11.288;2024-01-30T13:32:29;1.70;;;1.60;;
12332;SDS011;6232;48.094;11.288;2024-01-30T13:35:14;2.90;;;1.70;;
12332;SDS011;6232;48.094;11.288;2024-01-30T13:38:00;1.93;;;1.73;;
12332;SDS011;6232;48.094;11.288;2024-01-30T13:40:48;3.40;;;2.00;;
12332;SDS011;6232;48.094;11.288;2024-01-30T13:43:33;3.30;;;1.70;;
12332;SDS011;6232;48.094;11.288;2024-01-30T13:46:19;1.80;;;1.70;;
12332;SDS011;6232;48.094;11.288;2024-01-30T13:49:05;2.70;;;1.60;;
12332;SDS011;6232;48.094;11.288;2024-01-30T13:51:50;2.70;;;1.70;;
12332;SDS011;6232;48.094;11.288;2024-01-30T13:54:36;2.10;;;1.77;;
12332;SDS011;6232;48.094;11.288;2024-01-30T13:57:21;1.67;;;1.57;;
12332;SDS011;6232;48.094;11.288;2024-01-30T14:00:07;2.77;;;1.80;;
12332;SDS011;6232;48.094;11.288;2024-01-30T14:02:53;6.17;;;1.80;;
12332;SDS011;6232;48.094;11.288;2024-01-30T14:05:42;5.10;;;2.10;;
12332;SDS011;6232;48.094;11.288;2024-01-30T14:08:29;2.30;;;1.70;;
12332;SDS011;6232;48.094;11.288;2024-01-30T14:11:14;2.03;;;1.50;;
12332;SDS011;6232;48.094;11.288;2024-01-30T14:14:00;7.40;;;2.20;;
12332;SDS011;6232;48.094;11.288;2024-01-30T14:16:46;6.73;;;2.50;;
12332;SDS011;6232;48.094;11.288;2024-01-30T14:19:31;6.10;;;2.20;;
12332;SDS011;6232;48.094;11.288;2024-01-30T14:22:17;3.87;;;2.03;;
12332;SDS011;6232;48.094;11.288;2024-01-30T14:25:02;2.27;;;2.13;;
12332;SDS011;6232;48.094;11.288;2024-01-30T14:27:51;5.23;;;1.87;;
12332;SDS011;6232;48.094;11.288;2024-01-30T14:30:36;3.53;;;2.20;;
12332;SDS011;6232;48.094;11.288;2024-01-30T14:33:22;2.00;;;1.60;;
12332;SDS011;6232;48.094;11.288;2024-01-30T14:36:08;6.50;;;1.80;;
12332;SDS011;6232;48.094;11.288;2024-01-30T14:38:54;3.80;;;2.47;;
12332;SDS011;6232;48.094;11.288;2024-01-30T14:41:40;5.70;;;2.27;;
12332;SDS011;6232;48.094;11.288;2024-01-30T14:44:25;2.30;;;2.10;;
12332;SDS011;6232;48.094;11.288;2024-01-30T14:47:11;1.70;;;1.60;;
12332;SDS011;6232;48.094;11.288;2024-01-30T14:49:58;3.43;;;2.30;;
12332;SDS011;6232;48.094;11.288;2024-01-30T14:52:44;9.43;;;2.43;;
12332;SDS011;6232;48.094;11.288;2024-01-30T14:55:29;4.67;;;2.17;;
12332;SDS011;6232;48.094;11.288;2024-01-30T14:58:15;3.97;;;2.10;;
12332;SDS011;6232;48.094;11.288;2024-01-30T15:01:03;2.30;;;2.10;;
12332;SDS011;6232;48.094;11.288;2024-01-30T15:03:49;6.07;;;2.80;;
12332;SDS011;6232;48.094;11.288;2024-01-30T15:06:37;3.97;;;2.40;;
12332;SDS011;6232;48.094;11.288;2024-01-30T15:09:22;3.00;;;1.90;;
12332;SDS011;6232;48.094;11.288;2024-01-30T15:12:08;2.70;;;2.00;;
12332;SDS011;6232;48.094;11.288;2024-01-30T15:14:53;3.93;;;2.50;;
12332;SDS011;6232;48.094;11.288;2024-01-30T15:17:39;2.53;;;2.03;;
12332;SDS011;6232;48.094;11.288;2024-01-30T15:20:24;2.00;;;1.90;;
12332;SDS011;6232;48.094;11.288;2024-01-30T15:23:10;2.50;;;2.00;;
12332;SDS011;6232;48.094;11.288;2024-01-30T15:25:56;5.20;;;2.70;;
12332;SDS011;6232;48.094;11.288;2024-01-30T15:28:41;2.80;;;2.10;;
12332;SDS011;6232;48.094;11.288;2024-01-30T15:31:27;4.30;;;2.07;;
12332;SDS011;6232;48.094;11.288;2024-01-30T15:34:14;2.67;;;2.00;;
12332;SDS011;6232;48.094;11.288;2024-01-30T15:37:00;3.70;;;2.03;;
12332;SDS011;6232;48.094;11.288;2024-01-30T15:39:46;11.80;;;2.00;;
12332;SDS011;6232;48.094;11.288;2024-01-30T15:42:32;3.53;;;2.30;;
12332;SDS011;6232;48.094;11.288;2024-01-30T15:45:17;3.80;;;2.20;;
12332;SDS011;6232;48.094;11.288;2024-01-30T15:48:03;2.23;;;1.90;;
12332;SDS011;6232;48.094;11.288;2024-01-30T15:50:49;8.00;;;2.20;;
12332;SDS011;6232;48.094;11.288;2024-01-30T15:53:38;4.00;;;2.27;;
12332;SDS011;6232;48.094;11.288;2024-01-30T15:56:24;3.23;;;2.50;;
12332;SDS011;6232;48.094;11.288;2024-01-30T15:59:09;6.50;;;2.80;;
12332;SDS011;6232;48.094;11.288;2024-01-30T16:01:55;5.13;;;2.77;;
12332;SDS011;6232;48.094;11.288;2024-01-30T16:04:40;4.23;;;2.30;;
12332;SDS011;6232;48.094;11.288;2024-01-30T16:07:26;6.60;;;3.20;;
12332;SDS011;6232;48.094;11.288;2024-01-30T16:10:11;13.93;;;3.67;;
12332;SDS011;6232;48.094;11.288;2024-01-30T16:13:01;16.50;;;4.07;;
12332;SDS011;6232;48.094;11.288;2024-01-30T16:15:47;5.20;;;3.20;;
12332;SDS011;6232;48.094;11.288;2024-01-30T16:18:32;10.53;;;3.23;;
12332;SDS011;6232;48.094;11.288;2024-01-30T16:21:18;8.37;;;3.43;;
12332;SDS011;6232;48.094;11.288;2024-01-30T16:24:04;12.83;;;4.70;;
12332;SDS011;6232;48.094;11.288;2024-01-30T16:26:49;6.73;;;4.13;;
12332;SDS011;6232;48.094;11.288;2024-01-30T16:29:35;10.90;;;4.70;;
12332;SDS011;6232;48.094;11.288;2024-01-30T16:32:23;12.30;;;7.40;;
12332;SDS011;6232;48.094;11.288;2024-01-30T16:35:09;10.27;;;7.73;;
12332;SDS011;6232;48.094;11.288;2024-01-30T16:37:54;14.60;;;9.40;;
12332;SDS011;6232;48.094;11.288;2024-01-30T16:40:40;10.23;;;7.20;;
12332;SDS011;6232;48.094;11.288;2024-01-30T16:43:26;10.30;;;7.30;;